sensor_id;sensor_type;location;lat;lon;timestamp;temperature;humidity
5059;DHT22;2548;52.050;11.036;2023-05-10T00:00:12;11.30;99.90
5059;DHT22;2548;52.050;11.036;2023-05-10T00:02:40;11.30;99.90
5059;DHT22;2548;52.050;11.036;2023-05-10T00:05:08;11.30;99.90
5059;DHT22;2548;52.050;11.036;2023-05-10T00:07:37;11.20;99.90
5059;DHT22;2548;52.050;11.036;2023-05-10T00:10:05;11.20;99.90
5059;DHT22;2548;52.050;11.036;2023-05-10T00:12:32;11.10;99.90
5059;DHT22;2548;52.050;11.036;2023-05-10T00:15:00;11.10;99.90
5059;DHT22;2548;52.050;11.036;2023-05-10T00:17:27;11.20;99.90
5059;DHT22;2548;52.050;11.036;2023-05-10T00:19:55;11.10;99.90
5059;DHT22;2548;52.050;11.036;2023-05-10T00:22:22;11.10;99.90
5059;DHT22;2548;52.050;11.036;2023-05-10T00:24:51;11.10;99.90
5059;DHT22;2548;52.050;11.036;2023-05-10T00:27:18;11.10;99.90
5059;DHT22;2548;52.050;11.036;2023-05-10T00:29:46;11.00;99.90
5059;DHT22;2548;52.050;11.036;2023-05-10T00:32:13;11.00;99.90
5059;DHT22;2548;52.050;11.036;2023-05-10T00:34:40;11.00;99.90
5059;DHT22;2548;52.050;11.036;2023-05-10T00:37:08;11.00;99.90
5059;DHT22;2548;52.050;11.036;2023-05-10T00:39:35;10.90;99.90
5059;DHT22;2548;52.050;11.036;2023-05-10T00:42:04;10.90;99.90
5059;DHT22;2548;52.050;11.036;2023-05-10T00:44:32;10.90;99.90
5059;DHT22;2548;52.050;11.036;2023-05-10T00:47:00;10.80;99.90
5059;DHT22;2548;52.050;11.036;2023-05-10T00:49:28;10.80;99.90
5059;DHT22;2548;52.050;11.036;2023-05-10T00:51:55;10.80;99.90
5059;DHT22;2548;52.050;11.036;2023-05-10T00:54:23;10.70;99.90
5059;DHT22;2548;52.050;11.036;2023-05-10T00:56:51;10.70;99.90
5059;DHT22;2548;52.050;11.036;2023-05-10T00:59:20;10.70;99.90
5059;DHT22;2548;52.050;11.036;2023-05-10T01:01:48;10.70;99.90
5059;DHT22;2548;52.050;11.036;2023-05-10T01:04:15;10.60;99.90
5059;DHT22;2548;52.050;11.036;2023-05-10T01:06:43;10.60;99.90
5059;DHT22;2548;52.050;11.036;2023-05-10T01:09:10;10.60;99.90
5059;DHT22;2548;52.050;11.036;2023-05-10T01:11:39;10.50;99.90
5059;DHT22;2548;52.050;11.036;2023-05-10T01:14:07;10.50;99.90
5059;DHT22;2548;52.050;11.036;2023-05-10T01:16:37;10.50;99.90
5059;DHT22;2548;52.050;11.036;2023-05-10T01:19:08;10.50;99.90
5059;DHT22;2548;52.050;11.036;2023-05-10T01:21:43;10.50;99.90
5059;DHT22;2548;52.050;11.036;2023-05-10T01:27:44;10.50;99.90
5059;DHT22;2548;52.050;11.036;2023-05-10T01:30:51;10.50;99.90
5059;DHT22;2548;52.050;11.036;2023-05-10T01:33:26;10.40;99.90
5059;DHT22;2548;52.050;11.036;2023-05-10T01:36:01;10.40;99.90
5059;DHT22;2548;52.050;11.036;2023-05-10T01:38:38;10.30;99.90
5059;DHT22;2548;52.050;11.036;2023-05-10T01:41:14;10.30;99.90
5059;DHT22;2548;52.050;11.036;2023-05-10T01:43:50;10.30;99.90
5059;DHT22;2548;52.050;11.036;2023-05-10T01:46:27;10.40;99.90
5059;DHT22;2548;52.050;11.036;2023-05-10T01:48:58;10.40;99.90
5059;DHT22;2548;52.050;11.036;2023-05-10T01:51:31;10.40;99.90
5059;DHT22;2548;52.050;11.036;2023-05-10T01:54:03;10.40;99.90
5059;DHT22;2548;52.050;11.036;2023-05-10T01:56:33;10.40;99.90
5059;DHT22;2548;52.050;11.036;2023-05-10T01:59:07;10.40;99.90
5059;DHT22;2548;52.050;11.036;2023-05-10T02:01:36;10.40;99.90
5059;DHT22;2548;52.050;11.036;2023-05-10T02:04:07;10.40;99.90
5059;DHT22;2548;52.050;11.036;2023-05-10T02:06:36;10.40;99.90
5059;DHT22;2548;52.050;11.036;2023-05-10T02:09:05;10.40;99.90
5059;DHT22;2548;52.050;11.036;2023-05-10T02:11:34;10.40;99.90
5059;DHT22;2548;52.050;11.036;2023-05-10T02:14:02;10.40;99.90
5059;DHT22;2548;52.050;11.036;2023-05-10T02:16:30;10.40;99.90
5059;DHT22;2548;52.050;11.036;2023-05-10T02:19:02;10.40;99.90
5059;DHT22;2548;52.050;11.036;2023-05-10T02:21:32;10.40;99.90
5059;DHT22;2548;52.050;11.036;2023-05-10T02:24:01;10.40;99.90
5059;DHT22;2548;52.050;11.036;2023-05-10T02:26:31;10.40;99.90
5059;DHT22;2548;52.050;11.036;2023-05-10T02:29:01;10.30;99.90
5059;DHT22;2548;52.050;11.036;2023-05-10T02:31:30;10.30;99.90
5059;DHT22;2548;52.050;11.036;2023-05-10T02:33:59;10.20;99.90
5059;DHT22;2548;52.050;11.036;2023-05-10T02:36:28;10.20;99.90
5059;DHT22;2548;52.050;11.036;2023-05-10T02:39:00;10.30;99.90
5059;DHT22;2548;52.050;11.036;2023-05-10T02:41:31;10.20;99.90
5059;DHT22;2548;52.050;11.036;2023-05-10T02:43:59;10.20;99.90
5059;DHT22;2548;52.050;11.036;2023-05-10T02:46:28;10.20;99.90
5059;DHT22;2548;52.050;11.036;2023-05-10T02:48:56;10.20;99.90
5059;DHT22;2548;52.050;11.036;2023-05-10T02:51:25;10.20;99.90
5059;DHT22;2548;52.050;11.036;2023-05-10T02:53:56;10.20;99.90
5059;DHT22;2548;52.050;11.036;2023-05-10T02:56:33;10.20;99.90
5059;DHT22;2548;52.050;11.036;2023-05-10T02:59:02;10.20;99.90
5059;DHT22;2548;52.050;11.036;2023-05-10T03:01:30;10.20;99.90
5059;DHT22;2548;52.050;11.036;2023-05-10T03:03:58;10.30;99.90
5059;DHT22;2548;52.050;11.036;2023-05-10T03:06:25;10.30;99.90
5059;DHT22;2548;52.050;11.036;2023-05-10T03:08:54;10.30;99.90
5059;DHT22;2548;52.050;11.036;2023-05-10T03:11:34;10.30;99.90
5059;DHT22;2548;52.050;11.036;2023-05-10T03:14:16;10.30;99.90
5059;DHT22;2548;52.050;11.036;2023-05-10T03:17:06;10.30;99.90
5059;DHT22;2548;52.050;11.036;2023-05-10T03:19:39;10.30;99.90
5059;DHT22;2548;52.050;11.036;2023-05-10T03:22:11;10.40;99.90
5059;DHT22;2548;52.050;11.036;2023-05-10T03:24:41;10.40;99.90
5059;DHT22;2548;52.050;11.036;2023-05-10T03:27:11;10.40;99.90
5059;DHT22;2548;52.050;11.036;2023-05-10T03:29:42;10.40;99.90
5059;DHT22;2548;52.050;11.036;2023-05-10T03:32:10;10.50;99.90
5059;DHT22;2548;52.050;11.036;2023-05-10T03:34:42;10.50;99.90
5059;DHT22;2548;52.050;11.036;2023-05-10T03:37:09;10.50;99.90
5059;DHT22;2548;52.050;11.036;2023-05-10T03:39:38;10.50;99.90
5059;DHT22;2548;52.050;11.036;2023-05-10T03:42:07;10.40;99.90
5059;DHT22;2548;52.050;11.036;2023-05-10T03:44:39;10.50;99.90
5059;DHT22;2548;52.050;11.036;2023-05-10T03:47:07;10.50;99.90
5059;DHT22;2548;52.050;11.036;2023-05-10T03:49:34;10.50;99.90
5059;DHT22;2548;52.050;11.036;2023-05-10T03:52:02;10.50;99.90
5059;DHT22;2548;52.050;11.036;2023-05-10T03:54:31;10.50;99.90
5059;DHT22;2548;52.050;11.036;2023-05-10T03:56:59;10.50;99.90
5059;DHT22;2548;52.050;11.036;2023-05-10T03:59:27;10.50;99.90
5059;DHT22;2548;52.050;11.036;2023-05-10T04:01:55;10.50;99.90
5059;DHT22;2548;52.050;11.036;2023-05-10T04:04:23;10.50;99.90
5059;DHT22;2548;52.050;11.036;2023-05-10T04:06:50;10.60;99.90
5059;DHT22;2548;52.050;11.036;2023-05-10T04:09:19;10.60;99.90
5059;DHT22;2548;52.050;11.036;2023-05-10T04:11:46;10.60;99.90
5059;DHT22;2548;52.050;11.036;2023-05-10T04:14:14;10.60;99.90
5059;DHT22;2548;52.050;11.036;2023-05-10T04:16:41;10.60;99.90
5059;DHT22;2548;52.050;11.036;2023-05-10T04:19:10;10.60;99.90
5059;DHT22;2548;52.050;11.036;2023-05-10T04:21:37;10.60;99.90
5059;DHT22;2548;52.050;11.036;2023-05-10T04:24:05;10.70;99.90
5059;DHT22;2548;52.050;11.036;2023-05-10T04:26:32;10.70;99.90
5059;DHT22;2548;52.050;11.036;2023-05-10T04:29:00;10.70;99.90
5059;DHT22;2548;52.050;11.036;2023-05-10T04:31:27;10.70;99.90
5059;DHT22;2548;52.050;11.036;2023-05-10T04:33:55;10.80;99.90
5059;DHT22;2548;52.050;11.036;2023-05-10T04:36:24;10.80;99.90
5059;DHT22;2548;52.050;11.036;2023-05-10T04:38:51;10.80;99.90
5059;DHT22;2548;52.050;11.036;2023-05-10T04:41:18;10.90;99.90
5059;DHT22;2548;52.050;11.036;2023-05-10T04:43:46;11.00;99.90
5059;DHT22;2548;52.050;11.036;2023-05-10T04:46:15;11.10;99.90
5059;DHT22;2548;52.050;11.036;2023-05-10T04:48:42;11.10;99.90
5059;DHT22;2548;52.050;11.036;2023-05-10T04:51:09;11.20;99.90
5059;DHT22;2548;52.050;11.036;2023-05-10T04:53:38;11.30;99.90
5059;DHT22;2548;52.050;11.036;2023-05-10T04:56:06;11.30;99.90
5059;DHT22;2548;52.050;11.036;2023-05-10T04:58:34;11.30;99.90
5059;DHT22;2548;52.050;11.036;2023-05-10T05:01:07;11.40;99.90
5059;DHT22;2548;52.050;11.036;2023-05-10T05:03:36;11.40;99.90
5059;DHT22;2548;52.050;11.036;2023-05-10T05:06:04;11.40;99.90
5059;DHT22;2548;52.050;11.036;2023-05-10T05:08:32;11.40;99.90
5059;DHT22;2548;52.050;11.036;2023-05-10T05:11:00;11.40;99.90
5059;DHT22;2548;52.050;11.036;2023-05-10T05:13:28;11.40;99.90
5059;DHT22;2548;52.050;11.036;2023-05-10T05:15:55;11.40;99.90
5059;DHT22;2548;52.050;11.036;2023-05-10T05:18:23;11.30;99.90
5059;DHT22;2548;52.050;11.036;2023-05-10T05:20:50;11.30;99.90
5059;DHT22;2548;52.050;11.036;2023-05-10T05:23:17;11.30;99.90
5059;DHT22;2548;52.050;11.036;2023-05-10T05:25:46;11.20;99.90
5059;DHT22;2548;52.050;11.036;2023-05-10T05:28:15;11.20;99.90
5059;DHT22;2548;52.050;11.036;2023-05-10T05:30:43;11.20;99.90
5059;DHT22;2548;52.050;11.036;2023-05-10T05:33:10;11.20;99.90
5059;DHT22;2548;52.050;11.036;2023-05-10T05:35:37;11.20;99.90
5059;DHT22;2548;52.050;11.036;2023-05-10T05:38:05;11.20;99.90
5059;DHT22;2548;52.050;11.036;2023-05-10T05:40:33;11.30;99.90
5059;DHT22;2548;52.050;11.036;2023-05-10T05:43:00;11.30;99.90
5059;DHT22;2548;52.050;11.036;2023-05-10T05:45:29;11.40;99.90
5059;DHT22;2548;52.050;11.036;2023-05-10T05:47:57;11.40;99.90
5059;DHT22;2548;52.050;11.036;2023-05-10T05:50:24;11.40;99.90
5059;DHT22;2548;52.050;11.036;2023-05-10T05:52:52;11.50;99.90
5059;DHT22;2548;52.050;11.036;2023-05-10T05:55:19;11.50;99.90
5059;DHT22;2548;52.050;11.036;2023-05-10T05:57:47;11.60;99.90
5059;DHT22;2548;52.050;11.036;2023-05-10T06:00:15;11.60;99.90
5059;DHT22;2548;52.050;11.036;2023-05-10T06:02:46;11.70;99.90
5059;DHT22;2548;52.050;11.036;2023-05-10T06:05:13;11.70;99.90
5059;DHT22;2548;52.050;11.036;2023-05-10T06:07:41;11.70;99.90
5059;DHT22;2548;52.050;11.036;2023-05-10T06:10:09;11.80;99.90
5059;DHT22;2548;52.050;11.036;2023-05-10T06:12:37;11.90;99.90
5059;DHT22;2548;52.050;11.036;2023-05-10T06:15:05;12.10;99.90
5059;DHT22;2548;52.050;11.036;2023-05-10T06:17:32;12.20;99.90
5059;DHT22;2548;52.050;11.036;2023-05-10T06:20:01;12.40;99.90
5059;DHT22;2548;52.050;11.036;2023-05-10T06:22:29;12.50;99.90
5059;DHT22;2548;52.050;11.036;2023-05-10T06:24:56;12.60;99.90
5059;DHT22;2548;52.050;11.036;2023-05-10T06:27:24;12.60;99.90
5059;DHT22;2548;52.050;11.036;2023-05-10T06:29:52;12.70;99.90
5059;DHT22;2548;52.050;11.036;2023-05-10T06:32:19;12.70;99.90
5059;DHT22;2548;52.050;11.036;2023-05-10T06:34:46;12.80;99.90
5059;DHT22;2548;52.050;11.036;2023-05-10T06:37:15;12.80;99.90
5059;DHT22;2548;52.050;11.036;2023-05-10T06:39:43;12.80;99.90
5059;DHT22;2548;52.050;11.036;2023-05-10T06:42:10;12.90;99.90
5059;DHT22;2548;52.050;11.036;2023-05-10T06:44:37;12.90;99.90
5059;DHT22;2548;52.050;11.036;2023-05-10T06:47:05;12.90;99.90
5059;DHT22;2548;52.050;11.036;2023-05-10T06:49:32;12.90;99.90
5059;DHT22;2548;52.050;11.036;2023-05-10T06:52:00;13.00;99.90
5059;DHT22;2548;52.050;11.036;2023-05-10T06:54:28;13.00;99.90
5059;DHT22;2548;52.050;11.036;2023-05-10T06:56:56;13.00;99.90
5059;DHT22;2548;52.050;11.036;2023-05-10T06:59:23;13.00;99.90
5059;DHT22;2548;52.050;11.036;2023-05-10T07:01:51;13.10;99.90
5059;DHT22;2548;52.050;11.036;2023-05-10T07:04:20;13.10;99.90
5059;DHT22;2548;52.050;11.036;2023-05-10T07:06:47;13.20;99.90
5059;DHT22;2548;52.050;11.036;2023-05-10T07:09:15;13.20;99.90
5059;DHT22;2548;52.050;11.036;2023-05-10T07:11:44;13.30;99.90
5059;DHT22;2548;52.050;11.036;2023-05-10T07:14:11;13.40;99.90
5059;DHT22;2548;52.050;11.036;2023-05-10T07:16:39;13.50;99.90
5059;DHT22;2548;52.050;11.036;2023-05-10T07:19:06;13.70;99.90
5059;DHT22;2548;52.050;11.036;2023-05-10T07:21:34;13.80;99.90
5059;DHT22;2548;52.050;11.036;2023-05-10T07:24:02;13.90;99.90
5059;DHT22;2548;52.050;11.036;2023-05-10T07:26:29;13.90;99.90
5059;DHT22;2548;52.050;11.036;2023-05-10T07:28:58;13.90;99.90
5059;DHT22;2548;52.050;11.036;2023-05-10T07:31:25;13.90;99.90
5059;DHT22;2548;52.050;11.036;2023-05-10T07:33:53;14.00;99.90
5059;DHT22;2548;52.050;11.036;2023-05-10T07:36:20;14.00;99.90
5059;DHT22;2548;52.050;11.036;2023-05-10T07:38:48;14.10;99.90
5059;DHT22;2548;52.050;11.036;2023-05-10T07:41:15;14.10;99.90
5059;DHT22;2548;52.050;11.036;2023-05-10T07:43:43;14.10;99.90
5059;DHT22;2548;52.050;11.036;2023-05-10T07:46:12;14.20;99.90
5059;DHT22;2548;52.050;11.036;2023-05-10T07:48:39;14.20;99.90
5059;DHT22;2548;52.050;11.036;2023-05-10T07:51:07;14.20;99.90
5059;DHT22;2548;52.050;11.036;2023-05-10T07:53:35;14.30;99.90
5059;DHT22;2548;52.050;11.036;2023-05-10T07:56:20;14.40;99.90
5059;DHT22;2548;52.050;11.036;2023-05-10T07:58:47;14.40;99.90
5059;DHT22;2548;52.050;11.036;2023-05-10T08:01:16;14.50;99.90
5059;DHT22;2548;52.050;11.036;2023-05-10T08:03:44;14.50;99.90
5059;DHT22;2548;52.050;11.036;2023-05-10T08:06:11;14.60;99.90
5059;DHT22;2548;52.050;11.036;2023-05-10T08:08:39;14.60;99.90
5059;DHT22;2548;52.050;11.036;2023-05-10T08:11:06;14.80;99.90
5059;DHT22;2548;52.050;11.036;2023-05-10T08:13:33;14.90;99.90
5059;DHT22;2548;52.050;11.036;2023-05-10T08:16:01;15.00;99.90
5059;DHT22;2548;52.050;11.036;2023-05-10T08:18:30;15.10;99.90
5059;DHT22;2548;52.050;11.036;2023-05-10T08:20:57;15.20;99.90
5059;DHT22;2548;52.050;11.036;2023-05-10T08:23:24;15.30;99.90
5059;DHT22;2548;52.050;11.036;2023-05-10T08:25:52;15.40;99.90
5059;DHT22;2548;52.050;11.036;2023-05-10T08:28:19;15.50;99.90
5059;DHT22;2548;52.050;11.036;2023-05-10T08:30:47;15.50;99.90
5059;DHT22;2548;52.050;11.036;2023-05-10T08:33:14;15.60;99.90
5059;DHT22;2548;52.050;11.036;2023-05-10T08:35:43;15.60;99.90
5059;DHT22;2548;52.050;11.036;2023-05-10T08:38:10;15.70;99.90
5059;DHT22;2548;52.050;11.036;2023-05-10T08:40:39;15.70;99.90
5059;DHT22;2548;52.050;11.036;2023-05-10T08:43:09;15.80;99.90
5059;DHT22;2548;52.050;11.036;2023-05-10T08:45:39;15.80;99.90
5059;DHT22;2548;52.050;11.036;2023-05-10T08:48:08;15.80;99.90
5059;DHT22;2548;52.050;11.036;2023-05-10T08:50:36;15.70;99.90
5059;DHT22;2548;52.050;11.036;2023-05-10T08:53:09;15.70;99.90
5059;DHT22;2548;52.050;11.036;2023-05-10T08:55:37;15.70;99.90
5059;DHT22;2548;52.050;11.036;2023-05-10T08:58:05;15.80;99.90
5059;DHT22;2548;52.050;11.036;2023-05-10T09:00:33;15.70;99.90
5059;DHT22;2548;52.050;11.036;2023-05-10T09:03:01;15.70;99.90
5059;DHT22;2548;52.050;11.036;2023-05-10T09:05:29;15.70;99.90
5059;DHT22;2548;52.050;11.036;2023-05-10T09:07:57;15.70;99.90
5059;DHT22;2548;52.050;11.036;2023-05-10T09:10:26;15.60;99.90
5059;DHT22;2548;52.050;11.036;2023-05-10T09:12:56;15.60;99.90
5059;DHT22;2548;52.050;11.036;2023-05-10T09:15:24;15.50;99.90
5059;DHT22;2548;52.050;11.036;2023-05-10T09:17:51;15.50;99.90
5059;DHT22;2548;52.050;11.036;2023-05-10T09:20:19;15.40;99.90
5059;DHT22;2548;52.050;11.036;2023-05-10T09:22:47;15.40;99.90
5059;DHT22;2548;52.050;11.036;2023-05-10T09:25:15;15.40;99.90
5059;DHT22;2548;52.050;11.036;2023-05-10T09:27:46;15.40;99.90
5059;DHT22;2548;52.050;11.036;2023-05-10T09:30:16;15.40;99.90
5059;DHT22;2548;52.050;11.036;2023-05-10T09:32:45;15.30;99.90
5059;DHT22;2548;52.050;11.036;2023-05-10T09:35:14;15.20;99.90
5059;DHT22;2548;52.050;11.036;2023-05-10T09:37:42;15.20;99.90
5059;DHT22;2548;52.050;11.036;2023-05-10T09:40:12;15.20;99.90
5059;DHT22;2548;52.050;11.036;2023-05-10T09:42:41;15.30;99.90
5059;DHT22;2548;52.050;11.036;2023-05-10T09:45:10;15.30;99.90
5059;DHT22;2548;52.050;11.036;2023-05-10T09:47:38;15.40;99.90
5059;DHT22;2548;52.050;11.036;2023-05-10T09:50:06;15.40;99.90
5059;DHT22;2548;52.050;11.036;2023-05-10T09:52:46;15.40;99.90
5059;DHT22;2548;52.050;11.036;2023-05-10T09:55:14;15.40;99.90
5059;DHT22;2548;52.050;11.036;2023-05-10T09:57:42;15.40;99.90
5059;DHT22;2548;52.050;11.036;2023-05-10T10:00:17;15.40;99.90
5059;DHT22;2548;52.050;11.036;2023-05-10T10:02:46;15.40;99.90
5059;DHT22;2548;52.050;11.036;2023-05-10T10:05:14;15.40;99.90
5059;DHT22;2548;52.050;11.036;2023-05-10T10:07:42;15.40;99.90
5059;DHT22;2548;52.050;11.036;2023-05-10T10:10:10;15.40;99.90
5059;DHT22;2548;52.050;11.036;2023-05-10T10:12:41;15.40;99.90
5059;DHT22;2548;52.050;11.036;2023-05-10T10:15:12;15.50;99.90
5059;DHT22;2548;52.050;11.036;2023-05-10T10:17:40;15.50;99.90
5059;DHT22;2548;52.050;11.036;2023-05-10T10:20:08;15.40;99.90
5059;DHT22;2548;52.050;11.036;2023-05-10T10:22:37;15.40;99.90
5059;DHT22;2548;52.050;11.036;2023-05-10T10:25:05;15.40;99.90
5059;DHT22;2548;52.050;11.036;2023-05-10T10:27:42;15.40;99.90
5059;DHT22;2548;52.050;11.036;2023-05-10T10:30:23;15.30;99.90
5059;DHT22;2548;52.050;11.036;2023-05-10T10:36:00;15.00;99.90
5059;DHT22;2548;52.050;11.036;2023-05-10T10:38:36;14.90;99.90
5059;DHT22;2548;52.050;11.036;2023-05-10T10:41:10;14.90;99.90
5059;DHT22;2548;52.050;11.036;2023-05-10T10:43:38;14.80;99.90
5059;DHT22;2548;52.050;11.036;2023-05-10T10:46:16;14.80;99.90
5059;DHT22;2548;52.050;11.036;2023-05-10T10:48:47;14.70;99.90
5059;DHT22;2548;52.050;11.036;2023-05-10T10:51:15;14.80;99.90
5059;DHT22;2548;52.050;11.036;2023-05-10T10:53:43;14.80;99.90
5059;DHT22;2548;52.050;11.036;2023-05-10T10:56:12;14.90;99.90
5059;DHT22;2548;52.050;11.036;2023-05-10T10:58:42;14.90;99.90
5059;DHT22;2548;52.050;11.036;2023-05-10T11:01:18;15.00;99.90
5059;DHT22;2548;52.050;11.036;2023-05-10T11:04:17;15.00;99.90
5059;DHT22;2548;52.050;11.036;2023-05-10T11:06:44;15.10;99.90
5059;DHT22;2548;52.050;11.036;2023-05-10T11:09:12;15.20;99.90
5059;DHT22;2548;52.050;11.036;2023-05-10T11:11:51;15.40;99.90
5059;DHT22;2548;52.050;11.036;2023-05-10T11:14:21;15.50;99.90
5059;DHT22;2548;52.050;11.036;2023-05-10T11:16:50;15.50;99.90
5059;DHT22;2548;52.050;11.036;2023-05-10T11:19:18;15.50;99.90
5059;DHT22;2548;52.050;11.036;2023-05-10T11:21:48;15.50;99.90
5059;DHT22;2548;52.050;11.036;2023-05-10T11:24:17;15.40;99.90
5059;DHT22;2548;52.050;11.036;2023-05-10T11:26:45;15.30;99.90
5059;DHT22;2548;52.050;11.036;2023-05-10T11:29:13;15.30;99.90
5059;DHT22;2548;52.050;11.036;2023-05-10T11:31:44;15.30;99.90
5059;DHT22;2548;52.050;11.036;2023-05-10T11:34:23;15.30;99.90
5059;DHT22;2548;52.050;11.036;2023-05-10T11:36:51;15.40;99.90
5059;DHT22;2548;52.050;11.036;2023-05-10T11:39:20;15.30;99.90
5059;DHT22;2548;52.050;11.036;2023-05-10T11:41:48;15.30;99.90
5059;DHT22;2548;52.050;11.036;2023-05-10T11:44:16;15.30;99.90
5059;DHT22;2548;52.050;11.036;2023-05-10T11:46:44;15.40;99.90
5059;DHT22;2548;52.050;11.036;2023-05-10T11:49:11;15.40;99.90
5059;DHT22;2548;52.050;11.036;2023-05-10T11:51:40;15.40;99.90
5059;DHT22;2548;52.050;11.036;2023-05-10T11:54:11;15.50;99.90
5059;DHT22;2548;52.050;11.036;2023-05-10T11:56:39;15.50;99.90
5059;DHT22;2548;52.050;11.036;2023-05-10T11:59:07;15.50;99.90
5059;DHT22;2548;52.050;11.036;2023-05-10T12:01:34;15.50;99.90
5059;DHT22;2548;52.050;11.036;2023-05-10T12:04:02;15.60;99.90
5059;DHT22;2548;52.050;11.036;2023-05-10T12:06:31;15.60;99.90
5059;DHT22;2548;52.050;11.036;2023-05-10T12:09:05;15.60;99.90
5059;DHT22;2548;52.050;11.036;2023-05-10T12:11:39;15.70;99.90
5059;DHT22;2548;52.050;11.036;2023-05-10T12:14:08;15.70;99.90
5059;DHT22;2548;52.050;11.036;2023-05-10T12:16:36;15.70;99.90
5059;DHT22;2548;52.050;11.036;2023-05-10T12:19:04;15.70;99.90
5059;DHT22;2548;52.050;11.036;2023-05-10T12:21:31;15.80;99.90
5059;DHT22;2548;52.050;11.036;2023-05-10T12:24:03;15.90;99.90
5059;DHT22;2548;52.050;11.036;2023-05-10T12:26:31;16.00;99.90
5059;DHT22;2548;52.050;11.036;2023-05-10T12:29:12;15.90;99.90
5059;DHT22;2548;52.050;11.036;2023-05-10T12:31:52;15.90;99.90
5059;DHT22;2548;52.050;11.036;2023-05-10T12:34:26;16.00;99.90
5059;DHT22;2548;52.050;11.036;2023-05-10T12:36:54;16.00;99.90
5059;DHT22;2548;52.050;11.036;2023-05-10T12:39:23;16.10;99.90
5059;DHT22;2548;52.050;11.036;2023-05-10T12:41:51;16.00;99.90
5059;DHT22;2548;52.050;11.036;2023-05-10T12:44:19;16.10;99.90
5059;DHT22;2548;52.050;11.036;2023-05-10T12:46:46;16.20;99.90
5059;DHT22;2548;52.050;11.036;2023-05-10T12:49:14;16.20;99.90
5059;DHT22;2548;52.050;11.036;2023-05-10T12:51:41;16.30;99.90
5059;DHT22;2548;52.050;11.036;2023-05-10T12:54:08;16.30;99.90
5059;DHT22;2548;52.050;11.036;2023-05-10T12:56:37;16.40;99.90
5059;DHT22;2548;52.050;11.036;2023-05-10T12:59:06;16.40;99.90
5059;DHT22;2548;52.050;11.036;2023-05-10T13:01:34;16.50;99.90
5059;DHT22;2548;52.050;11.036;2023-05-10T13:04:01;16.50;99.90
5059;DHT22;2548;52.050;11.036;2023-05-10T13:06:29;16.50;99.90
5059;DHT22;2548;52.050;11.036;2023-05-10T13:08:56;16.60;99.90
5059;DHT22;2548;52.050;11.036;2023-05-10T13:11:24;16.70;99.90
5059;DHT22;2548;52.050;11.036;2023-05-10T13:13:53;16.70;99.90
5059;DHT22;2548;52.050;11.036;2023-05-10T13:16:20;16.90;99.90
5059;DHT22;2548;52.050;11.036;2023-05-10T13:18:48;17.10;99.90
5059;DHT22;2548;52.050;11.036;2023-05-10T13:21:15;17.20;99.90
5059;DHT22;2548;52.050;11.036;2023-05-10T13:23:43;17.40;99.90
5059;DHT22;2548;52.050;11.036;2023-05-10T13:26:10;17.30;99.90
5059;DHT22;2548;52.050;11.036;2023-05-10T13:28:38;17.10;99.90
5059;DHT22;2548;52.050;11.036;2023-05-10T13:31:07;17.10;99.90
5059;DHT22;2548;52.050;11.036;2023-05-10T13:33:34;17.00;99.90
5059;DHT22;2548;52.050;11.036;2023-05-10T13:36:01;17.20;99.90
5059;DHT22;2548;52.050;11.036;2023-05-10T13:38:29;17.30;99.90
5059;DHT22;2548;52.050;11.036;2023-05-10T13:40:56;17.30;99.90
5059;DHT22;2548;52.050;11.036;2023-05-10T13:43:24;17.40;99.90
5059;DHT22;2548;52.050;11.036;2023-05-10T13:45:51;17.30;99.90
5059;DHT22;2548;52.050;11.036;2023-05-10T13:48:20;17.30;99.90
5059;DHT22;2548;52.050;11.036;2023-05-10T13:50:47;17.40;99.90
5059;DHT22;2548;52.050;11.036;2023-05-10T13:53:15;17.40;99.90
5059;DHT22;2548;52.050;11.036;2023-05-10T13:55:43;17.40;99.90
5059;DHT22;2548;52.050;11.036;2023-05-10T13:58:10;17.50;99.90
5059;DHT22;2548;52.050;11.036;2023-05-10T14:00:38;17.60;99.90
5059;DHT22;2548;52.050;11.036;2023-05-10T14:03:05;17.60;99.90
5059;DHT22;2548;52.050;11.036;2023-05-10T14:05:36;17.70;99.90
5059;DHT22;2548;52.050;11.036;2023-05-10T14:08:03;17.70;99.90
5059;DHT22;2548;52.050;11.036;2023-05-10T14:10:31;17.90;99.90
5059;DHT22;2548;52.050;11.036;2023-05-10T14:12:58;17.90;99.90
5059;DHT22;2548;52.050;11.036;2023-05-10T14:15:26;17.90;99.90
5059;DHT22;2548;52.050;11.036;2023-05-10T14:17:53;17.80;99.90
5059;DHT22;2548;52.050;11.036;2023-05-10T14:20:21;17.80;99.90
5059;DHT22;2548;52.050;11.036;2023-05-10T14:22:50;17.80;99.90
5059;DHT22;2548;52.050;11.036;2023-05-10T14:25:17;17.90;99.90
5059;DHT22;2548;52.050;11.036;2023-05-10T14:27:45;17.90;99.90
5059;DHT22;2548;52.050;11.036;2023-05-10T14:30:13;17.90;99.90
5059;DHT22;2548;52.050;11.036;2023-05-10T14:32:40;17.90;99.90
5059;DHT22;2548;52.050;11.036;2023-05-10T14:35:08;17.90;99.90
5059;DHT22;2548;52.050;11.036;2023-05-10T14:37:36;17.70;99.90
5059;DHT22;2548;52.050;11.036;2023-05-10T14:40:06;17.60;99.90
5059;DHT22;2548;52.050;11.036;2023-05-10T14:42:33;17.60;99.90
5059;DHT22;2548;52.050;11.036;2023-05-10T14:45:01;17.60;99.90
5059;DHT22;2548;52.050;11.036;2023-05-10T14:47:28;17.70;99.90
5059;DHT22;2548;52.050;11.036;2023-05-10T14:49:56;17.70;99.90
5059;DHT22;2548;52.050;11.036;2023-05-10T14:52:24;17.70;99.90
5059;DHT22;2548;52.050;11.036;2023-05-10T14:54:51;17.70;99.90
5059;DHT22;2548;52.050;11.036;2023-05-10T14:57:20;17.70;99.90
5059;DHT22;2548;52.050;11.036;2023-05-10T14:59:48;17.70;99.90
5059;DHT22;2548;52.050;11.036;2023-05-10T15:02:15;17.70;99.90
5059;DHT22;2548;52.050;11.036;2023-05-10T15:04:43;17.70;99.90
5059;DHT22;2548;52.050;11.036;2023-05-10T15:07:10;17.60;99.90
5059;DHT22;2548;52.050;11.036;2023-05-10T15:09:40;17.60;99.90
5059;DHT22;2548;52.050;11.036;2023-05-10T15:12:07;17.70;99.90
5059;DHT22;2548;52.050;11.036;2023-05-10T15:14:36;17.60;99.90
5059;DHT22;2548;52.050;11.036;2023-05-10T15:17:06;17.60;99.90
5059;DHT22;2548;52.050;11.036;2023-05-10T15:19:34;17.60;99.90
5059;DHT22;2548;52.050;11.036;2023-05-10T15:22:02;17.60;99.90
5059;DHT22;2548;52.050;11.036;2023-05-10T15:24:29;17.60;99.90
5059;DHT22;2548;52.050;11.036;2023-05-10T15:26:57;17.70;99.90
5059;DHT22;2548;52.050;11.036;2023-05-10T15:29:24;17.70;99.90
5059;DHT22;2548;52.050;11.036;2023-05-10T15:31:53;17.70;99.90
5059;DHT22;2548;52.050;11.036;2023-05-10T15:34:21;17.60;99.90
5059;DHT22;2548;52.050;11.036;2023-05-10T15:36:48;17.60;99.90
5059;DHT22;2548;52.050;11.036;2023-05-10T15:39:16;17.60;99.90
5059;DHT22;2548;52.050;11.036;2023-05-10T15:41:43;17.70;99.90
5059;DHT22;2548;52.050;11.036;2023-05-10T15:44:11;17.70;99.90
5059;DHT22;2548;52.050;11.036;2023-05-10T15:46:38;17.70;99.90
5059;DHT22;2548;52.050;11.036;2023-05-10T15:49:07;17.70;99.90
5059;DHT22;2548;52.050;11.036;2023-05-10T15:51:34;17.70;99.90
5059;DHT22;2548;52.050;11.036;2023-05-10T15:54:02;17.60;99.90
5059;DHT22;2548;52.050;11.036;2023-05-10T15:56:32;17.60;99.90
5059;DHT22;2548;52.050;11.036;2023-05-10T15:59:00;17.60;99.90
5059;DHT22;2548;52.050;11.036;2023-05-10T16:01:27;17.60;99.90